Weather observations for the past three days for
Gonzales Roger M. Dreyer Memorial
Metric (Imperial)
Date Time (cdt) Wind (kph) Vis. (km) Weather Sky Cond. Temperature (ºC) Relative Humidity Wind Chill (°C) Heat Index (°C) Pressure Precipitation (cm)
Air Dwpt 6 hour altimeter (cm) sea level (mb) 1 hr 3 hr 6 hr
Max. Min.
04 20:55 SE 15 0.00 Fair CLR 23.5 19.8 80% 75.72 0.0
04 20:35 SE 13 0.00 Fair CLR 24 19.8 77% 25 75.72 0.0
04 20:15 SE 13 0.00 Fair CLR 24.8 19.7 73% 26 75.72 0.0
04 19:55 S 15 0.00 Fair CLR 25.3 19.7 71% 26 75.69 0.0
04 19:35 S 17 G 26 0.00 Partly Cloudy SCT049 25.8 19.6 69% 27 75.69 0.0
04 19:15 S 19 G 33 0.00 Mostly Cloudy BKN049 26.2 19.5 67% 27 75.72 0.0
04 18:55 S 15 0.00 Partly Cloudy SCT034 SCT041 SCT049 26.6 19.9 28.7 26.2 67% 28 75.74 0.0
04 18:35 S 20 0.00 Mostly Cloudy SCT036 BKN046 26.8 19.9 66% 28 75.74 0.0
04 18:15 S 22 G 30 0.00 Partly Cloudy SCT036 SCT042 SCT050 27 19.7 64% 28 75.77 0.0
04 17:55 S 22 G 30 0.00 Overcast SCT036 BKN044 OVC050 27.1 19.6 64% 28 75.77 0.0
04 17:35 S 17 G 30 0.00 Overcast SCT040 OVC050 27.6 19.2 60% 29 75.77 0.0
04 17:15 S 20 G 28 0.00 Overcast SCT040 OVC048 27.5 19.1 60% 29 75.79 0.0
04 16:55 S 19 G 28 0.00 Overcast BKN044 OVC050 27.3 18.5 59% 28 75.79 0.0
04 16:35 S 24 G 30 0.00 Overcast OVC050 28.1 18.7 57% 29 75.79 0.0
04 16:15 S 17 0.00 Overcast OVC050 27.8 18.5 57% 29 75.79 0.0
04 15:55 S 19 G 26 0.00 Overcast OVC048 28 18.6 57% 29 75.84 0.0
04 15:35 S 17 G 28 0.00 Overcast BKN043 OVC050 28.2 18.6 56% 29 75.87 0.0
04 15:15 S 15 G 28 0.00 Overcast SCT040 OVC049 27.9 18.8 58% 29 75.9 0.0
04 14:55 S 22 G 28 0.00 Mostly Cloudy SCT040 BKN049 28.1 18.4 56% 29 75.92 0.0
04 14:35 S 11 G 28 0.00 Mostly Cloudy SCT040 BKN047 28.1 18.2 55% 29 75.92 0.0
04 14:15 SW 19 G 26 0.00 Overcast BKN040 OVC047 27.1 18.1 58% 28 75.95 0.0
04 13:55 S 17 G 28 0.00 Mostly Cloudy BKN042 BKN049 27.4 18.1 57% 28 75.97 0.0
04 13:35 S 19 G 26 0.00 Mostly Cloudy SCT038 BKN044 27.6 18.6 58% 29 76 0.0
04 13:15 S 15 0.00 Mostly Cloudy BKN037 BKN043 26.4 17.9 60% 27 76.02 0.0
04 12:55 S 20 G 26 0.00 Partly Cloudy SCT035 26.8 18.4 27 16 60% 28 76.05 0.0
04 12:35 SW 20 G 28 0.00 Partly Cloudy SCT033 26.6 18.3 60% 28 76.05 0.0
04 12:15 SW 17 G 31 0.00 Mostly Cloudy BKN033 25.7 18 63% 27 76.1 0.0
04 11:55 SW 19 0.00 Mostly Cloudy BKN031 BKN037 24.9 17.9 65% 26 76.1 0.0
04 11:35 S 20 G 35 0.00 Mostly Cloudy BKN031 24.8 18 66% 26 76.12 0.0
04 11:15 S 15 G 26 0.00 Mostly Cloudy BKN027 BKN034 24.8 18 66% 26 76.12 0.0
04 10:55 S 22 G 30 0.00 Mostly Cloudy BKN027 24.5 17.8 66% 26 76.15 0.0
04 10:35 S 17 0.00 Overcast OVC027 23.6 17.7 70% 76.12 0.0
04 10:15 S 19 0.00 Mostly Cloudy BKN027 23.7 17.4 68% 76.15 0.0
04 09:55 S 19 0.00 Partly Cloudy SCT027 23.4 17 67% 76.17 0.0
04 09:35 S 15 0.00 Fair CLR 22.9 16.7 68% 76.15 0.0
04 09:15 S 11 0.00 Fair CLR 22 16.4 71% 76.17 0.0
04 08:55 S 11 0.00 Fair CLR 20.4 15.5 74% 76.17 0.0
04 08:35 S 9 0.00 Fair CLR 19.3 15 76% 76.17 0.0
04 08:15 S 9 0.00 Fair CLR 18.6 14.5 77% 76.17 0.0
04 07:55 SE 7 0.00 Fair CLR 17.6 14.3 81% 76.17 0.0
04 07:35 S 6 0.00 Fair CLR 16.6 14 85% 76.15 0.0
04 07:15 SE 7 0.00 NULL NULL 16.1 13.8 86% 76.12 0.0
04 06:55 SE 7 0.00 NULL NULL 16 13.7 18.5 15.7 86% 76.12 0.0
04 06:35 SE 6 0.00 NULL NULL 16.1 13.7 86% 76.12 0.0
04 06:15 SE 6 0.00 NULL NULL 16.1 13.8 86% 76.12 0.0
04 05:55 S 6 0.00 Fair CLR 16 13.5 85% 76.15 0.0
04 05:35 S 6 0.00 Fair CLR 15.8 13.3 85% 76.15 0.0
04 05:15 S 6 0.00 Fair CLR 15.9 13.3 85% 76.15 0.0
04 04:55 SE 7 0.00 Fair CLR 16 13.3 84% 76.12 0.0
04 04:15 SE 6 0.00 Fair CLR 16.3 13.3 83% 76.17 0.0
04 03:55 SE 7 0.00 Fair CLR 16.5 13.2 81% 76.17 0.0
04 03:35 S 7 0.00 Fair CLR 16.6 13.1 80% 76.17 0.0
04 03:15 SE 9 0.00 Fair CLR 16.7 13.2 80% 76.17 0.0
04 02:55 S 7 0.00 Fair CLR 17 13.3 79% 76.2 0.0
04 02:35 S 7 0.00 Fair CLR 17.2 13.3 78% 76.2 0.0
04 02:15 S 7 0.00 Fair CLR 17.5 13.5 78% 76.25 0.0
04 01:55 S 9 0.00 Fair CLR 17.8 13.5 76% 76.3 0.0
04 01:35 S 9 0.00 Fair CLR 18.1 13.5 75% 76.3 0.0
04 01:15 S 9 0.00 Fair CLR 18.4 13.4 73% 76.3 0.0
04 00:55 S 11 0.00 Fair CLR 18.5 13.4 25.8 18.5 72% 76.33 0.0
04 00:35 S 13 0.00 Fair CLR 18.6 13.2 71% 76.33 0.0
04 00:15 SE 13 0.00 Fair CLR 18.7 13.3 71% 76.35 0.0
03 23:55 SE 13 0.00 Fair CLR 18.8 13.2 70% 76.35 0.0
03 23:35 SE 11 0.00 Fair CLR 19.1 13.1 68% 76.38 0.0
03 23:15 S 11 0.00 Fair CLR 19.4 12.9 66% 76.38 0.0
03 22:55 S 9 0.00 Fair CLR 19.5 12.6 65% 76.38 0.0
03 22:35 SE 9 0.00 Fair CLR 19.5 12.3 63% 76.38 0.0
03 22:15 SE 13 0.00 Fair CLR 20 12.2 61% 76.38 0.0
03 21:55 SE 15 0.00 Fair CLR 20.3 12.5 61% 76.35 0.0
03 21:35 S 15 0.00 Fair CLR 20.6 12.6 60% 76.35 0.0
03 21:15 S 11 0.00 Fair CLR 21.2 12.5 58% 76.33 0.0
03 20:55 S 11 0.00 Fair CLR 21.3 11.5 54% 76.3 0.0
03 20:35 S 13 0.00 Fair CLR 22.1 10.9 49% 76.3 0.0
03 20:15 S 13 0.00 Fair CLR 22.5 10.9 48% 76.28 0.0
03 19:55 SE 11 0.00 Fair CLR 23.3 10.7 45% 76.28 0.0
03 19:35 S 13 0.00 Fair CLR 24.5 10.4 41% 26 76.3 0.0
03 19:15 S 11 0.00 Fair CLR 25.5 10 38% 26 76.3 0.0
03 18:55 S 9 0.00 Fair CLR 25.9 9.7 27.3 25 36% 26 76.3 0.0
03 18:35 S 13 0.00 Fair CLR 26.2 9.9 36% 26 76.3 0.0
03 18:15 S 11 0.00 Fair CLR 26.5 9.8 35% 26 76.3 0.0
03 17:55 S 11 0.00 Fair CLR 27 10.1 35% 27 76.33 0.0
03 17:35 S 15 0.00 Fair CLR 26.8 9.6 34% 26 76.35 0.0
03 17:15 S 13 0.00 Fair CLR 27.2 10.1 34% 27 76.38 0.0
03 16:55 SE 11 0.00 Fair CLR 27.2 9.5 33% 27 76.38 0.0
03 16:35 S 11 0.00 Fair CLR 27.1 9.7 34% 27 76.4 0.0
03 16:15 SE 13 0.00 Fair CLR 26.9 9.4 33% 26 76.43 0.0
03 15:55 S 13 0.00 Fair CLR 26.7 9.1 33% 26 76.45 0.0
03 15:35 S 7 0.00 Fair CLR 26.4 9.5 35% 26 76.48 0.0
03 15:15 S 13 0.00 Fair CLR 26.4 10.6 37% 26 76.5 0.0
03 14:55 S 11 G 26 0.00 Fair CLR 26.2 10.9 38% 26 76.53 0.0
03 14:35 SE 11 0.00 Fair CLR 26.4 11.3 39% 26 76.56 0.0
03 14:15 SE 7 0.00 Fair CLR 25.6 10.2 38% 26 76.58 0.0
03 13:35 S 11 0.00 Fair CLR 25.6 10.9 40% 26 76.63 0.0
03 13:15 S 6 0.00 Fair CLR 25.4 11.5 42% 26 76.66 0.0
03 12:55 SE 9 0.00 Fair CLR 25.2 10.7 25.2 12 40% 26 76.68 0.0
03 12:35 SE 11 0.00 Fair CLR 24.7 10.7 41% 26 76.71 0.0
03 12:15 S 13 0.00 Fair CLR 24.3 10.9 43% 25 76.73 0.0
03 11:55 S 13 0.00 Fair CLR 24.2 11.9 46% 25 76.73 0.0
03 11:35 S 6 0.00 Fair CLR 23.7 12.5 50% 76.76 0.0
03 11:15 S 9 0.00 Fair CLR 23.6 12.8 51% 76.78 0.0
03 10:55 S 9 0.00 Fair CLR 23 12.4 51% 76.76 0.0
03 10:35 S 9 0.00 Fair CLR 22.4 12 52% 76.78 0.0
03 10:15 Calm 0.00 Fair CLR 21.6 13.2 59% 76.78 0.0
03 09:55 Calm 0.00 Fair CLR 20.5 14.1 67% 76.76 0.0
03 09:35 Calm 0.00 Fair CLR 19.4 14.4 73% 76.76 0.0
03 09:15 Calm 0.00 Fair CLR 18.5 14.5 78% 76.73 0.0
03 08:55 Calm 0.00 Fair CLR 17.2 13.9 81% 76.73 0.0
03 08:35 Calm 0.00 Fair CLR 16.1 13.3 84% 76.71 0.0
03 08:15 Calm 0.00 NULL NULL 15 12.9 87% 76.71 0.0
03 07:35 Calm 0.00 NULL NULL 12.8 12.4 97% 76.71 0.0
03 07:15 Calm 0.00 NULL NULL 12.2 12 99% 76.68 0.0
03 06:55 Calm 0.00 NULL NULL 11.9 11.6 15 11.8 98% 76.68 0.0
03 06:35 Calm 0.00 NULL NULL 11.9 11.5 97% 76.66 0.0
03 06:15 Calm 0.00 NULL NULL 12.1 11.8 98% 76.63 0.0
03 05:55 Calm 0.00 NULL NULL 12.4 11.8 96% 76.61 0.0
03 05:35 Calm 0.00 NULL NULL 12.7 12.4 98% 76.61 0.0
03 05:15 Calm 0.00 NULL NULL 12.7 12.5 99% 76.61 0.0
03 04:55 Calm 0.00 NULL NULL 13 12.5 97% 76.61 0.0
03 04:35 Calm 0.00 NULL NULL 13.1 12.8 98% 76.61 0.0
03 04:15 Calm 0.00 NULL NULL 13.3 13 98% 76.61 0.0
03 03:55 Calm 0.00 NULL NULL 13.7 13.4 98% 76.61 0.0
03 03:35 Calm 0.00 NULL NULL 13.8 13.4 97% 76.61 0.0
03 03:15 Calm 0.00 NULL NULL 14 13.5 97% 76.61 0.0
03 02:55 Calm 0.00 NULL NULL 13.9 13.5 97% 76.61 0.0
03 02:35 Calm 0.00 NULL NULL 13.9 13.5 97% 76.63 0.0
03 02:15 Calm 0.00 NULL NULL 14 13.6 97% 76.63 0.0
03 01:55 Calm 0.00 NULL NULL 14.2 13.6 96% 76.63 0.0
03 01:15 Calm 0.00 NULL NULL 14.5 14 97% 76.63 0.0
03 00:55 Calm 0.00 NULL NULL 15 13.6 23.2 14.7 91% 76.63 0.0
03 00:35 Calm 0.00 NULL NULL 14.8 13.7 93% 76.63 0.0
03 00:15 Calm 0.00 NULL NULL 15.2 13.9 92% 76.63 0.0
02 23:55 Calm 0.00 NULL NULL 15.1 14.1 94% 76.63 0.0
02 23:35 Calm 0.00 NULL NULL 15.7 13.7 88% 76.63 0.0
02 23:15 Calm 0.00 NULL NULL 15.7 14.1 90% 76.63 0.0
02 22:55 Calm 0.00 NULL NULL 16.1 13.9 87% 76.63 0.0
02 22:35 Calm 0.00 NULL NULL 16.3 14.1 87% 76.61 0.0
02 22:15 Calm 0.00 Fair CLR 16.9 13.1 78% 76.58 0.0
02 21:55 Calm 0.00 Fair CLR 17.3 12 71% 76.58 0.0
02 21:35 Calm 0.00 Fair CLR 17.8 12.9 73% 76.56 0.0
02 21:15 Calm 0.00 Fair CLR 18.5 12.5 68% 76.53 0.0
02 20:55 Calm 0.00 Fair CLR 19.6 11.8 61% 76.53 0.0
02 20:35 E 6 0.00 Fair CLR 19.3 11.9 62% 76.5 0.0
02 20:15 Calm 0.00 Fair CLR 20.6 11.4 56% 76.5 0.0
02 19:55 NE 6 0.00 Fair CLR 21.6 10.6 50% 76.48 0.0
02 19:35 NE 7 0.00 Fair CLR 22.5 10.3 46% 76.48 0.0
02 19:15 NE 7 0.00 Fair CLR 23 9.7 43% 76.48 0.0
02 18:35 NE 15 0.00 Fair CLR 23.5 9.7 42% 76.48 0.0
02 18:15 N 7 0.00 Fair CLR 23.7 9.8 41% 76.45 0.0
02 17:55 NE 13 G 26 0.00 Fair CLR 23.9 9.8 41% 25 76.45 0.0
02 17:35 NE 17 G 26 0.00 Fair CLR 24 9.2 39% 25 76.45 0.0
02 17:15 NE 9 0.00 Fair CLR 24 10.1 42% 25 76.45 0.0
02 16:55 NE 11 0.00 Fair CLR 24.1 10.1 41% 25 76.45 0.0
02 16:35 NE 15 0.00 Fair CLR 23.7 9.9 42% 76.48 0.0
02 16:15 NE 11 G 28 0.00 Fair CLR 23.6 9.9 42% 76.48 0.0
02 15:35 N 15 0.00 Fair CLR 23.6 11 45% 76.53 0.0
02 15:15 N 17 0.00 Partly Cloudy SCT055 23.3 11 46% 76.56 0.0
02 14:55 N 7 0.00 Partly Cloudy SCT055 22.7 10.9 47% 76.56 0.0
02 14:35 NE 19 G 28 0.00 Fair CLR 22.4 10.6 47% 76.56 0.0
02 14:15 NE 19 G 26 0.00 Fair CLR 22.2 10.4 47% 76.58 0.0
02 13:35 NE 15 G 26 0.00 Fair CLR 21.8 10.4 48% 76.61 0.0
02 13:15 NE 15 0.00 Fair CLR 21.3 10.1 49% 76.63 0.0
02 12:55 NE 17 0.00 Fair CLR 21.3 9.9 21.3 11.1 48% 76.66 0.0
02 12:35 N 15 G 30 0.00 Fair CLR 20.9 10.8 53% 76.68 0.0
02 12:15 N 15 0.00 Fair CLR 20.3 10.5 53% 76.71 0.0
02 11:55 NE 15 0.00 Fair CLR 20 10.8 56% 76.71 0.0
02 11:35 N 17 0.00 Fair CLR 19.8 11.5 59% 76.71 0.0
02 11:15 NE 15 G 30 0.00 Fair CLR 19 10.8 59% 76.71 0.0
02 10:55 NE 17 0.00 Fair CLR 18.5 10.7 61% 76.68 0.0
02 10:35 N 13 G 26 0.00 Fair CLR 18 10.7 63% 76.66 0.0
02 10:15 N 15 0.00 Fair CLR 17.5 11.1 66% 76.66 0.0
02 09:55 NE 17 0.00 Fair CLR 17 10.7 67% 76.63 0.0
02 09:35 N 17 G 26 0.00 Fair CLR 16.7 11 69% 76.63 0.0
02 09:15 N 15 0.00 Fair CLR 15.9 10.8 72% 76.61 0.0
02 08:55 N 9 0.00 Fair CLR 15.1 10.4 74% 76.61 0.0
02 08:35 N 15 0.00 Fair CLR 14.1 10.2 78% 76.61 0.0
02 07:55 N 11 0.00 Fair CLR 12.7 10.1 84% 76.56 0.0
02 07:35 N 11 0.00 NULL NULL 12 10 88% 76.53 0.0
02 07:15 N 15 0.00 NULL NULL 11.5 10 91% 76.5 0.0
02 06:55 N 9 0.00 NULL NULL 11.1 10 13.6 10.8 93% 76.5 0.0
02 06:35 N 13 0.00 NULL NULL 11.1 10 93% 76.48 0.0
02 06:15 N 11 0.00 NULL NULL 11 10.2 95% 76.45 0.0
02 05:55 N 7 0.00 NULL NULL 11 10.2 95% 76.45 0.0
02 05:35 N 7 0.00 NULL NULL 10.8 10.2 96% 76.43 0.0
02 05:15 Calm 0.00 NULL NULL 11 10.2 95% 76.43 0.0
02 04:55 Calm 0.00 NULL NULL 11.2 10.1 93% 76.4 0.0
02 04:35 Calm 0.00 NULL NULL 11.3 10.1 92% 76.38 0.0
02 04:15 N 6 0.00 NULL NULL 11.2 10 92% 76.38 0.0
02 03:55 N 9 0.00 NULL NULL 11.3 10 92% 76.33 0.0
02 03:35 N 9 0.00 NULL NULL 11.2 9.9 92% 76.3 0.0
02 03:15 N 7 0.00 NULL NULL 11.4 9.9 91% 76.3 0.0
02 02:55 N 9 0.00 NULL NULL 11.5 10 91% 76.3 0.0
02 02:35 N 13 0.00 NULL NULL 11.6 10.1 91% 76.3 0.0
02 02:15 N 13 0.00 NULL NULL 11.9 10.5 91% 76.33 0.0
02 01:55 N 13 0.00 NULL NULL 12.2 10.8 91% 76.3 0.0
02 01:35 N 17 0.00 Mostly Cloudy BKN012 12.7 11.3 91% 76.3 0.0
02 01:15 N 15 0.00 Overcast OVC012 13.2 11.5 90% 76.3 0.0
02 00:55 N 13 0.00 Overcast OVC012 13.6 11.7 15.5 13.6 88% 76.33 0.0
02 00:35 N 9 0.00 Overcast OVC012 13.7 12 90% 76.3 0.0
02 00:15 N 9 0.00 Overcast OVC012 13.8 12 89% 76.3 0.0
01 23:55 NE 17 0.00 Overcast OVC012 13.9 11.9 88% 76.3 0.0
01 23:35 N 15 G 28 0.00 Overcast OVC012 14 12.1 88% 76.3 0.0
01 23:15 N 15 0.00 Overcast OVC012 14 12.1 88% 76.28 0.0
01 22:55 N 19 G 31 0.00 Overcast OVC012 14 12.3 90% 76.25 0.0
01 22:35 N 15 G 28 0.00 Overcast OVC012 14 12.3 90% 76.25 0.0
01 22:15 N 15 G 31 0.00 Overcast OVC012 14.1 12.3 89% 76.23 0.0
01 21:55 N 15 G 31 0.00 Overcast OVC012 14.1 12.4 90% 76.23 0.0
01 21:35 N 20 G 37 0.00 Overcast OVC012 14.2 12.5 90% 76.2 0.0
01 21:15 N 17 G 35 0.00 Overcast OVC012 14.3 12.5 89% 76.17 0.0
Date Time (cdt) Wind (kph) Vis. (km) Weather Sky Cond. Air Dwpt Max. Min. Relative Humidity Wind Chill (°C) Heat Index (°C) altimeter (cm) sea level (mb) 1 hr 3 hr 6 hr
6 hour
Temperature (ºC) Pressure Precipitation (cm)